createdAt,value
2024-02-08T00:02:19.012Z,100338.09
2024-02-08T00:04:48.425Z,100340.25
2024-02-08T00:07:16.184Z,100353.31
2024-02-08T00:09:43.980Z,100348.69
2024-02-08T00:12:13.072Z,100339.13
2024-02-08T00:14:40.806Z,100337.50
2024-02-08T00:17:08.475Z,100353.56
2024-02-08T00:19:36.143Z,100351.66
2024-02-08T00:22:04.107Z,100343.50
2024-02-08T00:24:38.062Z,100348.69
2024-02-08T00:27:05.647Z,100346.22
2024-02-08T00:29:33.335Z,100347.88
2024-02-08T00:32:01.297Z,100354.94
2024-02-08T00:34:29.009Z,100346.78
2024-02-08T00:36:56.632Z,100357.66
2024-02-08T00:39:24.395Z,100354.38
2024-02-08T00:41:52.284Z,100355.22
2024-02-08T00:44:20.542Z,100360.66
2024-02-08T00:46:53.098Z,100350.59
2024-02-08T00:49:22.459Z,100351.41
2024-02-08T00:51:50.677Z,100348.66
2024-02-08T00:54:18.342Z,100357.38
2024-02-08T00:56:46.022Z,100354.94
2024-02-08T00:59:16.690Z,100348.41
2024-02-08T01:01:44.409Z,100358.19
2024-02-08T01:04:12.464Z,100351.94
2024-02-08T01:06:42.049Z,100357.66
2024-02-08T01:09:09.876Z,100355.47
2024-02-08T01:11:37.564Z,100349.72
2024-02-08T01:14:05.207Z,100355.72
2024-02-08T01:16:34.408Z,100362.00
2024-02-08T01:19:04.211Z,100346.75
2024-02-08T01:21:32.681Z,100353.28
2024-02-08T01:24:00.335Z,100352.44
2024-02-08T01:26:27.950Z,100349.72
2024-02-08T01:28:55.856Z,100354.09
2024-02-08T01:31:23.672Z,100346.75
2024-02-08T01:33:51.940Z,100339.94
2024-02-08T01:36:19.683Z,100324.97
2024-02-08T01:38:47.546Z,100320.03
2024-02-08T01:41:15.355Z,100326.88
2024-02-08T01:43:43.095Z,100337.19
2024-02-08T01:46:11.332Z,100336.66
2024-02-08T01:48:42.828Z,100329.81
2024-02-08T01:51:14.274Z,100327.38
2024-02-08T01:53:44.197Z,100320.81
2024-02-08T01:56:13.511Z,100309.94
2024-02-08T01:58:45.599Z,100300.38
2024-02-08T02:01:19.395Z,100312.94
2024-02-08T02:03:47.826Z,100319.44
2024-02-08T02:06:16.182Z,100320.00
2024-02-08T02:08:59.116Z,100325.97
2024-02-08T02:11:42.763Z,100327.88
2024-02-08T02:14:11.240Z,100327.34
2024-02-08T02:16:40.051Z,100331.16
2024-02-08T02:19:07.831Z,100338.50
2024-02-08T02:21:36.390Z,100337.44
2024-02-08T02:24:04.508Z,100343.41
2024-02-08T02:26:33.821Z,100334.13
2024-02-08T02:29:04.384Z,100325.97
2024-02-08T02:31:33.796Z,100307.44
2024-02-08T02:34:01.806Z,100305.53
2024-02-08T02:36:29.659Z,100309.88
2024-02-08T02:38:57.178Z,100301.44
2024-02-08T02:41:29.116Z,100297.09
2024-02-08T02:43:57.014Z,100291.63
2024-02-08T02:46:24.660Z,100288.63
2024-02-08T02:48:52.388Z,100295.44
2024-02-08T02:51:20.954Z,100286.47
2024-02-08T02:53:48.661Z,100280.16
2024-02-08T02:56:17.010Z,100276.38
2024-02-08T02:58:44.680Z,100277.19
2024-02-08T03:01:13.448Z,100292.44
2024-02-08T03:03:42.202Z,100295.69
2024-02-08T03:06:16.860Z,100292.72
2024-02-08T03:08:47.097Z,100276.63
2024-02-08T03:11:15.566Z,100273.66
2024-02-08T03:13:47.467Z,100269.88
2024-02-08T03:16:18.781Z,100268.78
2024-02-08T03:18:50.222Z,100267.16
2024-02-08T03:21:23.383Z,100273.69
2024-02-08T03:23:51.642Z,100281.03
2024-02-08T03:26:19.277Z,100275.00
2024-02-08T03:28:47.984Z,100285.34
2024-02-08T03:31:16.015Z,100268.44
2024-02-08T03:33:46.542Z,100273.88
2024-02-08T03:36:14.197Z,100265.97
2024-02-08T03:38:41.840Z,100261.06
2024-02-08T03:41:09.734Z,100258.09
2024-02-08T03:43:37.593Z,100249.94
2024-02-08T03:46:08.750Z,100250.78
2024-02-08T03:48:38.171Z,100251.34
2024-02-08T03:51:05.939Z,100250.25
2024-02-08T03:53:38.113Z,100255.41
2024-02-08T03:56:07.592Z,100260.28
2024-02-08T03:58:37.478Z,100252.66
2024-02-08T04:01:05.345Z,100254.81
2024-02-08T04:03:54.565Z,100257.00
2024-02-08T04:06:37.977Z,100250.97
2024-02-08T04:09:18.180Z,100244.72
2024-02-08T04:12:04.648Z,100247.72
2024-02-08T04:14:52.084Z,100243.66
2024-02-08T04:17:38.659Z,100244.19
2024-02-08T04:20:29.235Z,100235.72
2024-02-08T04:23:23.647Z,100255.59
2024-02-08T04:26:09.986Z,100243.91
2024-02-08T04:28:56.362Z,100240.06
2024-02-08T04:31:43.856Z,100261.59
2024-02-08T04:34:30.168Z,100256.69
2024-02-08T04:37:16.592Z,100241.16
2024-02-08T04:40:03.346Z,100242.78
2024-02-08T04:42:50.626Z,100229.75
2024-02-08T04:45:36.836Z,100227.31
2024-02-08T04:48:23.837Z,100216.16
2024-02-08T04:51:10.978Z,100205.81
2024-02-08T04:53:45.273Z,100199.56
2024-02-08T04:56:13.735Z,100201.75
2024-02-08T04:59:07.384Z,100195.22
2024-02-08T05:01:39.316Z,100189.47
2024-02-08T05:04:08.637Z,100190.03
2024-02-08T05:06:37.035Z,100182.66
2024-02-08T05:09:04.797Z,100184.81
2024-02-08T05:11:37.830Z,100182.34
2024-02-08T05:14:06.442Z,100191.03
2024-02-08T05:16:38.479Z,100191.88
2024-02-08T05:19:06.628Z,100188.88
2024-02-08T05:21:43.195Z,100188.56
2024-02-08T05:24:15.409Z,100184.22
2024-02-08T05:26:44.567Z,100191.59
2024-02-08T05:29:21.144Z,100202.78
2024-02-08T05:31:52.671Z,100195.69
2024-02-08T05:34:23.189Z,100199.22
2024-02-08T05:36:53.652Z,100199.75
2024-02-08T05:39:26.357Z,100203.59
2024-02-08T05:41:59.348Z,100203.81
2024-02-08T05:44:34.077Z,100199.72
2024-02-08T05:47:10.923Z,100200.81
2024-02-08T05:49:53.536Z,100205.97
2024-02-08T05:52:21.432Z,100202.69
2024-02-08T05:54:53.500Z,100210.34
2024-02-08T05:57:22.767Z,100204.63
2024-02-08T05:59:54.180Z,100198.09
2024-02-08T06:02:26.126Z,100194.53
2024-02-08T06:05:11.223Z,100179.84
2024-02-08T06:07:39.334Z,100173.84
2024-02-08T06:10:23.814Z,100175.25
2024-02-08T06:13:00.787Z,100167.63
2024-02-08T06:15:35.073Z,100166.81
2024-02-08T06:18:06.489Z,100161.91
2024-02-08T06:20:35.688Z,100167.34
2024-02-08T06:23:24.321Z,100168.16
2024-02-08T06:26:12.510Z,100180.97
2024-02-08T06:28:48.118Z,100176.91
2024-02-08T06:31:19.999Z,100172.03
2024-02-08T06:34:08.236Z,100162.22
2024-02-08T06:36:41.748Z,100160.28
2024-02-08T06:39:25.199Z,100156.50
2024-02-08T06:41:54.495Z,100151.28
2024-02-08T06:44:39.475Z,100143.91
2024-02-08T06:47:19.778Z,100149.94
2024-02-08T06:50:06.147Z,100153.78
2024-02-08T06:52:52.981Z,100160.03
2024-02-08T06:55:39.010Z,100157.03
2024-02-08T06:58:25.344Z,100148.28
2024-02-08T07:01:11.836Z,100152.06
2024-02-08T07:03:59.178Z,100131.88
2024-02-08T07:06:45.726Z,100114.72
2024-02-08T07:09:31.807Z,100111.78
2024-02-08T07:12:17.863Z,100097.88
2024-02-08T07:15:03.931Z,100106.56
2024-02-08T07:17:50.342Z,100084.19
2024-02-08T07:20:37.438Z,100094.81
2024-02-08T07:23:23.601Z,100099.69
2024-02-08T07:26:10.167Z,100093.94
2024-02-08T07:28:56.527Z,100090.66
2024-02-08T07:31:43.846Z,100092.50
2024-02-08T07:34:30.446Z,100089.22
2024-02-08T07:37:16.690Z,100082.41
2024-02-08T07:39:48.087Z,100100.09
2024-02-08T07:42:21.331Z,100097.59
2024-02-08T07:44:56.148Z,100103.28
2024-02-08T07:47:28.315Z,100105.44
2024-02-08T07:50:11.635Z,100094.53
2024-02-08T07:52:47.231Z,100083.03
2024-02-08T07:55:21.815Z,100069.66
2024-02-08T07:58:00.069Z,100062.84
2024-02-08T08:00:43.525Z,100072.34
2024-02-08T08:03:24.950Z,100056.22
2024-02-08T08:05:58.039Z,100045.25
2024-02-08T08:08:29.213Z,100049.00
2024-02-08T08:11:03.700Z,100039.75
2024-02-08T08:13:51.582Z,100051.69
2024-02-08T08:16:32.840Z,100051.41
2024-02-08T08:19:11.537Z,100050.00
2024-02-08T08:22:05.329Z,100037.41
2024-02-08T08:24:53.327Z,100037.63
2024-02-08T08:27:35.161Z,100032.41
2024-02-08T08:30:07.690Z,100028.81
2024-02-08T08:32:36.319Z,100032.84
2024-02-08T08:35:25.608Z,100015.34
2024-02-08T08:38:11.907Z,100010.91
2024-02-08T08:40:40.625Z,100006.47
2024-02-08T08:43:11.943Z,99992.25
2024-02-08T08:45:43.890Z,99998.22
2024-02-08T08:48:13.160Z,99990.53
2024-02-08T08:50:41.406Z,99992.69
2024-02-08T08:53:18.368Z,99972.97
2024-02-08T08:55:51.430Z,99972.09
2024-02-08T08:58:23.803Z,99975.63
2024-02-08T09:01:00.430Z,99977.28
2024-02-08T09:03:28.448Z,99975.06
2024-02-08T09:06:00.432Z,99981.56
2024-02-08T09:08:43.370Z,99977.41
2024-02-08T09:11:15.635Z,99977.09
2024-02-08T09:13:53.731Z,99974.09
2024-02-08T09:16:26.159Z,99982.22
2024-02-08T09:19:01.296Z,99981.59
2024-02-08T09:21:34.458Z,99976.13
2024-02-08T09:24:07.058Z,99972.03
2024-02-08T09:26:55.849Z,99959.19
2024-02-08T09:29:31.480Z,99955.31
2024-02-08T09:32:17.238Z,99951.47
2024-02-08T09:34:47.721Z,99941.38
2024-02-08T09:37:16.779Z,99936.72
2024-02-08T09:39:59.544Z,99926.41
2024-02-08T09:42:28.907Z,99922.88
2024-02-08T09:45:17.625Z,99916.59
2024-02-08T09:47:56.028Z,99907.88
2024-02-08T09:50:38.742Z,99907.88
2024-02-08T09:53:19.369Z,99903.22
2024-02-08T09:55:57.181Z,99897.75
2024-02-08T09:58:38.921Z,99893.44
2024-02-08T10:01:31.832Z,99882.00
2024-02-08T10:04:07.505Z,99875.44
2024-02-08T10:06:43.143Z,99881.69
2024-02-08T10:09:33.564Z,99869.38
2024-02-08T10:12:08.810Z,99860.88
2024-02-08T10:14:47.173Z,99851.56
2024-02-08T10:17:42.233Z,99837.13
2024-02-08T10:20:22.647Z,99829.72
2024-02-08T10:23:10.905Z,99827.31
2024-02-08T10:25:58.500Z,99833.75
2024-02-08T10:28:27.826Z,99822.03
2024-02-08T10:31:13.794Z,99832.69
2024-02-08T10:33:49.426Z,99830.75
2024-02-08T10:36:21.548Z,99818.41
2024-02-08T10:38:58.867Z,99800.81
2024-02-08T10:41:37.066Z,99782.81
2024-02-08T10:44:06.988Z,99780.38
2024-02-08T10:46:35.663Z,99762.38
2024-02-08T10:49:10.657Z,99770.88
2024-02-08T10:51:44.828Z,99770.06
2024-02-08T10:54:17.181Z,99789.97
2024-02-08T10:57:06.032Z,99781.78
2024-02-08T10:59:49.156Z,99784.25
2024-02-08T11:02:39.649Z,99803.03
2024-02-08T11:05:36.158Z,99780.59
2024-02-08T11:08:13.738Z,99760.06
2024-02-08T11:10:46.896Z,99755.41
2024-02-08T11:13:23.699Z,99751.56
2024-02-08T11:15:55.059Z,99755.09
2024-02-08T11:18:36.923Z,99727.78
2024-02-08T11:21:06.706Z,99738.22
2024-02-08T11:23:47.538Z,99751.28
2024-02-08T11:26:19.941Z,99749.03
2024-02-08T11:29:19.994Z,99749.53
2024-02-08T11:31:48.038Z,99741.53
2024-02-08T11:34:25.518Z,99742.56
2024-02-08T11:36:53.807Z,99739.19
2024-02-08T11:39:30.153Z,99732.31
2024-02-08T11:42:01.870Z,99730.88
2024-02-08T11:47:40.017Z,99738.47
2024-02-08T11:50:10.579Z,99737.06
2024-02-08T11:52:40.373Z,99736.25
2024-02-08T11:55:29.810Z,99714.06
2024-02-08T11:57:58.713Z,99712.97
2024-02-08T12:00:27.835Z,99699.81
2024-02-08T12:03:03.118Z,99699.00
2024-02-08T12:05:31.838Z,99709.44
2024-02-08T12:08:11.487Z,99682.28
2024-02-08T12:10:43.124Z,99671.69
2024-02-08T12:13:15.211Z,99659.94
2024-02-08T12:15:57.447Z,99657.38
2024-02-08T12:18:29.981Z,99644.72
2024-02-08T12:21:02.805Z,99636.53
2024-02-08T12:23:41.833Z,99629.31
2024-02-08T12:26:13.693Z,99642.38
2024-02-08T12:28:45.334Z,99627.59
2024-02-08T12:31:19.785Z,99635.59
2024-02-08T12:33:53.500Z,99625.59
2024-02-08T12:36:25.472Z,99618.53
2024-02-08T12:38:59.438Z,99618.63
2024-02-08T12:41:30.412Z,99623.09
2024-02-08T12:43:58.498Z,99620.69
2024-02-08T12:46:28.719Z,99610.88
2024-02-08T12:48:56.768Z,99604.09
2024-02-08T12:51:24.863Z,99591.44
2024-02-08T12:53:58.405Z,99584.97
2024-02-08T12:56:26.523Z,99587.69
2024-02-08T12:59:02.314Z,99576.09
2024-02-08T13:01:42.892Z,99570.34
2024-02-08T13:04:19.152Z,99563.25
2024-02-08T13:06:50.628Z,99558.41
2024-02-08T13:09:32.019Z,99558.22
2024-02-08T13:12:18.834Z,99578.78
2024-02-08T13:14:49.484Z,99553.66
2024-02-08T13:17:22.512Z,99534.44
2024-02-08T13:19:58.606Z,99530.22
2024-02-08T13:22:33.390Z,99530.53
2024-02-08T13:25:01.124Z,99521.03
2024-02-08T13:27:30.623Z,99517.47
2024-02-08T13:30:01.509Z,99510.09
2024-02-08T13:32:31.140Z,99502.84
2024-02-08T13:35:04.149Z,99490.50
2024-02-08T13:37:36.320Z,99489.09
2024-02-08T13:40:05.513Z,99478.28
2024-02-08T13:42:47.442Z,99471.84
2024-02-08T13:45:27.098Z,99465.78
2024-02-08T13:47:59.386Z,99473.31
2024-02-08T13:50:32.994Z,99471.38
2024-02-08T13:53:07.347Z,99470.91
2024-02-08T13:55:46.322Z,99450.66
2024-02-08T13:58:29.808Z,99444.38
2024-02-08T14:00:59.552Z,99439.53
2024-02-08T14:03:31.239Z,99428.44
2024-02-08T14:06:01.956Z,99412.06
2024-02-08T14:08:31.853Z,99407.09
2024-02-08T14:11:00.402Z,99398.09
2024-02-08T14:13:36.479Z,99402.75
2024-02-08T14:16:17.761Z,99396.50
2024-02-08T14:18:56.098Z,99395.97
2024-02-08T14:21:27.902Z,99382.31
2024-02-08T14:24:02.494Z,99375.25
2024-02-08T14:26:44.771Z,99374.66
2024-02-08T14:29:14.236Z,99359.88
2024-02-08T14:31:42.927Z,99345.56
2024-02-08T14:34:12.579Z,99336.56
2024-02-08T14:36:48.172Z,99331.13
2024-02-08T14:39:30.871Z,99323.25
2024-02-08T14:42:12.001Z,99316.38
2024-02-08T14:44:45.975Z,99304.44
2024-02-08T14:47:23.092Z,99305.25
2024-02-08T14:50:22.820Z,99308.47
2024-02-08T14:52:51.108Z,99308.31
2024-02-08T14:55:22.655Z,99295.94
2024-02-08T14:57:53.910Z,99291.94
2024-02-08T15:00:34.303Z,99292.41
2024-02-08T15:03:10.108Z,99279.22
2024-02-08T15:05:50.147Z,99269.44
2024-02-08T15:08:24.452Z,99262.38
2024-02-08T15:11:27.278Z,99263.97
2024-02-08T15:13:56.541Z,99254.50
2024-02-08T15:16:31.595Z,99253.69
2024-02-08T15:18:59.869Z,99248.72
2024-02-08T15:21:36.804Z,99251.44
2024-02-08T15:24:13.985Z,99246.00
2024-02-08T15:26:51.449Z,99248.09
2024-02-08T15:29:39.589Z,99237.47
2024-02-08T15:32:18.299Z,99240.72
2024-02-08T15:35:00.697Z,99232.81
2024-02-08T15:37:30.300Z,99229.28
2024-02-08T15:40:12.432Z,99217.22
2024-02-08T15:42:44.226Z,99219.34
2024-02-08T15:45:17.595Z,99215.00
2024-02-08T15:48:05.411Z,99220.47
2024-02-08T15:50:47.019Z,99217.41
2024-02-08T15:53:19.127Z,99209.22
2024-02-08T15:55:51.182Z,99201.84
2024-02-08T15:58:20.670Z,99203.28
2024-02-08T16:01:08.731Z,99198.63
2024-02-08T16:03:41.476Z,99195.25
2024-02-08T16:06:29.992Z,99181.91
2024-02-08T16:09:01.278Z,99184.31
2024-02-08T16:11:35.206Z,99178.56
2024-02-08T16:14:16.747Z,99170.03
2024-02-08T16:17:08.123Z,99165.38
2024-02-08T16:19:52.769Z,99163.44
2024-02-08T16:22:20.746Z,99156.84
2024-02-08T16:24:50.727Z,99154.13
2024-02-08T16:27:20.719Z,99149.16
2024-02-08T16:30:09.177Z,99137.13
2024-02-08T16:32:40.671Z,99133.59
2024-02-08T16:35:28.861Z,99131.31
2024-02-08T16:38:08.972Z,99120.41
2024-02-08T16:40:53.394Z,99122.81
2024-02-08T16:43:29.070Z,99124.44
2024-02-08T16:46:19.383Z,99125.22
2024-02-08T16:48:48.573Z,99123.63
2024-02-08T16:51:26.650Z,99121.38
2024-02-08T16:54:03.096Z,99113.66
2024-02-08T16:56:40.845Z,99126.69
2024-02-08T16:59:16.713Z,99114.16
2024-02-08T17:02:03.686Z,99122.19
2024-02-08T17:04:49.198Z,99119.75
2024-02-08T17:07:40.767Z,99113.19
2024-02-08T17:10:10.067Z,99104.16
2024-02-08T17:12:58.304Z,99100.63
2024-02-08T17:15:29.293Z,99119.28
2024-02-08T17:18:11.368Z,99115.44
2024-02-08T17:21:06.461Z,99104.00
2024-02-08T17:23:56.680Z,99114.28
2024-02-08T17:26:36.720Z,99138.88
2024-02-08T17:29:30.125Z,99105.13
2024-02-08T17:31:58.001Z,99094.22
2024-02-08T17:34:28.460Z,99088.41
2024-02-08T17:36:56.538Z,99094.22
2024-02-08T17:39:41.416Z,99091.97
2024-02-08T17:42:10.450Z,99091.97
2024-02-08T17:44:42.419Z,99083.91
2024-02-08T17:47:11.342Z,99083.13
2024-02-08T17:49:39.102Z,99080.72
2024-02-08T17:52:08.535Z,99078.78
2024-02-08T17:54:53.487Z,99070.75
2024-02-08T17:57:25.043Z,99068.81
2024-02-08T17:59:59.965Z,99078.78
2024-02-08T18:02:33.432Z,99053.53
2024-02-08T18:05:04.556Z,99064.97
2024-02-08T18:07:37.878Z,99054.50
2024-02-08T18:10:18.492Z,99067.88
2024-02-08T18:12:53.320Z,99055.00
2024-02-08T18:15:26.242Z,99060.47
2024-02-08T18:17:58.134Z,99051.94
2024-02-08T18:20:31.240Z,99045.66
2024-02-08T18:23:03.446Z,99046.47
2024-02-08T18:25:31.927Z,99055.94
2024-02-08T18:28:07.076Z,99050.97
2024-02-08T18:30:36.822Z,99047.09
2024-02-08T18:33:06.014Z,99041.63
2024-02-08T18:35:35.505Z,99043.22
2024-02-08T18:38:09.867Z,99041.63
2024-02-08T18:40:39.291Z,99033.44
2024-02-08T18:43:07.962Z,99031.50
2024-02-08T18:45:38.208Z,99022.66
2024-02-08T18:48:12.197Z,99017.66
2024-02-08T18:50:44.418Z,99031.00
2024-02-08T18:53:14.008Z,99008.50
2024-02-08T18:55:52.318Z,99022.28
2024-02-08T18:58:22.716Z,99016.53
2024-02-08T19:00:51.535Z,99011.97
2024-02-08T19:03:21.695Z,99006.34
2024-02-08T19:05:50.958Z,99000.56
2024-02-08T19:08:20.123Z,99004.56
2024-02-08T19:10:59.747Z,99004.22
2024-02-08T19:13:36.538Z,98998.44
2024-02-08T19:16:13.971Z,99003.91
2024-02-08T19:18:46.600Z,98989.91
2024-02-08T19:21:30.324Z,98994.13
2024-02-08T19:24:03.592Z,98983.97
2024-02-08T19:26:33.672Z,98986.84
2024-02-08T19:29:07.922Z,98981.53
2024-02-08T19:31:42.543Z,98980.53
2024-02-08T19:34:20.149Z,98973.59
2024-02-08T19:36:59.637Z,98978.44
2024-02-08T19:39:30.184Z,98977.75
2024-02-08T19:42:02.333Z,98977.09
2024-02-08T19:44:35.876Z,98976.13
2024-02-08T19:47:22.142Z,98966.13
2024-02-08T19:50:02.967Z,98964.50
2024-02-08T19:52:35.945Z,98959.53
2024-02-08T19:55:04.590Z,98957.25
2024-02-08T19:57:40.300Z,98959.34
2024-02-08T20:00:18.641Z,98965.72
2024-02-08T20:02:48.032Z,98955.72
2024-02-08T20:05:15.951Z,98948.00
2024-02-08T20:07:45.521Z,98953.59
2024-02-08T20:10:13.658Z,98950.19
2024-02-08T20:12:45.671Z,98948.72
2024-02-08T20:15:18.184Z,98945.34
2024-02-08T20:17:50.987Z,98944.66
2024-02-08T20:20:20.377Z,98940.91
2024-02-08T20:22:55.042Z,98937.19
2024-02-08T20:25:29.780Z,98933.09
2024-02-08T20:27:59.941Z,98935.22
2024-02-08T20:30:29.697Z,98935.00
2024-02-08T20:33:00.640Z,98935.59
2024-02-08T20:35:28.561Z,98930.25
2024-02-08T20:37:59.629Z,98922.16
2024-02-08T20:40:27.486Z,98924.25
2024-02-08T20:42:55.271Z,98918.56
2024-02-08T20:45:27.826Z,98919.94
2024-02-08T20:47:55.673Z,98926.47
2024-02-08T20:50:23.716Z,98913.50
2024-02-08T20:52:51.398Z,98918.31
2024-02-08T20:55:25.470Z,98909.44
2024-02-08T20:57:54.372Z,98919.16
2024-02-08T21:00:23.831Z,98918.34
2024-02-08T21:02:54.628Z,98910.44
2024-02-08T21:05:24.612Z,98906.97
2024-02-08T21:07:52.292Z,98904.94
2024-02-08T21:10:26.865Z,98904.59
2024-02-08T21:12:56.664Z,98910.84
2024-02-08T21:15:27.115Z,98901.50
2024-02-08T21:17:55.346Z,98892.44
2024-02-08T21:20:23.877Z,98905.66
2024-02-08T21:22:51.961Z,98899.97
2024-02-08T21:25:21.190Z,98905.25
2024-02-08T21:27:53.990Z,98902.66
2024-02-08T21:30:22.316Z,98899.69
2024-02-08T21:32:50.507Z,98896.66
2024-02-08T21:35:19.507Z,98894.44
2024-02-08T21:37:47.326Z,98890.59
2024-02-08T21:40:15.555Z,98876.53
2024-02-08T21:42:45.721Z,98887.28
2024-02-08T21:45:14.237Z,98885.75
2024-02-08T21:47:42.448Z,98890.09
2024-02-08T21:50:11.455Z,98874.81
2024-02-08T21:52:40.489Z,98879.16
2024-02-08T21:55:09.186Z,98870.16
2024-02-08T21:57:36.989Z,98870.59
2024-02-08T22:00:12.466Z,98873.78
2024-02-08T22:02:41.654Z,98857.22
2024-02-08T22:05:11.223Z,98871.47
2024-02-08T22:07:39.987Z,98865.59
2024-02-08T22:10:13.046Z,98867.53
2024-02-08T22:12:46.297Z,98866.38
2024-02-08T22:15:19.918Z,98853.75
2024-02-08T22:17:54.893Z,98852.22
2024-02-08T22:20:23.315Z,98858.53
2024-02-08T22:22:52.346Z,98854.19
2024-02-08T22:25:20.011Z,98846.38
2024-02-08T22:27:48.211Z,98840.50
2024-02-08T22:30:16.759Z,98846.00
2024-02-08T22:32:48.042Z,98836.94
2024-02-08T22:35:16.903Z,98834.97
2024-02-08T22:37:49.646Z,98840.13
2024-02-08T22:40:20.159Z,98836.56
2024-02-08T22:42:49.039Z,98832.22
2024-02-08T22:45:19.369Z,98823.16
2024-02-08T22:47:47.077Z,98820.41
2024-02-08T22:50:16.883Z,98809.38
2024-02-08T22:52:47.610Z,98804.66
2024-02-08T22:55:23.006Z,98801.50
2024-02-08T22:58:01.754Z,98796.78
2024-02-08T23:00:29.996Z,98798.34
2024-02-08T23:03:09.337Z,98797.19
2024-02-08T23:05:41.908Z,98796.03
2024-02-08T23:08:16.167Z,98792.09
2024-02-08T23:10:44.883Z,98788.13
2024-02-08T23:13:12.743Z,98783.41
2024-02-08T23:15:47.463Z,98781.06
2024-02-08T23:18:20.272Z,98772.00
2024-02-08T23:20:51.691Z,98771.66
2024-02-08T23:23:21.106Z,98758.22
2024-02-08T23:25:49.528Z,98760.19
2024-02-08T23:28:21.428Z,98750.34
2024-02-08T23:30:49.464Z,98745.56
2024-02-08T23:33:19.493Z,98747.88
2024-02-08T23:35:47.388Z,98745.13
2024-02-08T23:38:20.124Z,98739.63
2024-02-08T23:40:49.072Z,98743.91
2024-02-08T23:43:17.303Z,98743.13
2024-02-08T23:45:47.808Z,98730.94
2024-02-08T23:48:15.992Z,98729.69
2024-02-08T23:50:47.574Z,98729.69
2024-02-08T23:53:15.340Z,98723.84
2024-02-08T23:55:43.420Z,98717.16
2024-02-08T23:58:12.286Z,98712.44
